createdAt,value
2023-08-17T00:01:33.694Z,9.80
2023-08-17T00:04:00.832Z,9.77
2023-08-17T00:06:27.626Z,10.93
2023-08-17T00:08:54.285Z,10.30
2023-08-17T00:11:20.929Z,9.07
2023-08-17T00:13:47.599Z,8.75
2023-08-17T00:16:14.452Z,9.77
2023-08-17T00:18:41.195Z,9.63
2023-08-17T00:21:07.867Z,9.23
2023-08-17T00:23:34.556Z,9.57
2023-08-17T00:26:01.317Z,6.97
2023-08-17T00:28:27.986Z,7.55
2023-08-17T00:30:54.667Z,8.25
2023-08-17T00:33:21.397Z,7.35
2023-08-17T00:35:48.127Z,5.32
2023-08-17T00:38:14.791Z,7.20
2023-08-17T00:40:41.480Z,2.90
2023-08-17T00:43:08.314Z,2.10
2023-08-17T00:45:35.000Z,1.60
2023-08-17T00:48:01.729Z,2.17
2023-08-17T00:50:28.798Z,2.20
2023-08-17T00:52:55.931Z,1.98
2023-08-17T00:55:22.605Z,2.70
2023-08-17T00:57:49.278Z,2.75
2023-08-17T01:00:18.641Z,2.92
2023-08-17T01:02:46.569Z,2.63
2023-08-17T01:05:13.860Z,2.47
2023-08-17T01:07:40.526Z,2.35
2023-08-17T01:10:07.657Z,2.22
2023-08-17T01:12:39.071Z,1.90
2023-08-17T01:15:19.353Z,1.95
2023-08-17T01:17:58.502Z,1.90
2023-08-17T01:20:25.364Z,2.17
2023-08-17T01:22:53.086Z,2.60
2023-08-17T01:25:19.724Z,2.20
2023-08-17T01:27:46.620Z,2.53
2023-08-17T01:30:15.867Z,2.10
2023-08-17T01:32:52.303Z,1.70
2023-08-17T01:35:45.865Z,2.13
2023-08-17T01:38:15.002Z,1.90
2023-08-17T01:40:41.649Z,1.95
2023-08-17T01:43:08.299Z,2.25
2023-08-17T01:45:35.586Z,2.72
2023-08-17T01:48:02.365Z,3.00
2023-08-17T01:50:29.055Z,2.85
2023-08-17T01:52:55.715Z,3.25
2023-08-17T01:55:24.340Z,2.92
2023-08-17T01:57:50.981Z,3.47
2023-08-17T02:00:17.655Z,3.63
2023-08-17T02:02:44.378Z,3.70
2023-08-17T02:05:11.186Z,3.80
2023-08-17T02:07:37.847Z,4.18
2023-08-17T02:10:04.897Z,3.55
2023-08-17T02:12:32.404Z,3.80
2023-08-17T02:14:59.064Z,3.88
2023-08-17T02:17:26.024Z,3.38
2023-08-17T02:19:53.071Z,3.45
2023-08-17T02:22:19.739Z,3.65
2023-08-17T02:24:47.652Z,4.10
2023-08-17T02:27:14.328Z,3.75
2023-08-17T02:29:41.035Z,4.20
2023-08-17T02:32:07.704Z,3.45
2023-08-17T02:34:34.380Z,3.13
2023-08-17T02:37:01.087Z,3.95
2023-08-17T02:39:27.809Z,4.10
2023-08-17T02:41:54.558Z,3.95
2023-08-17T02:44:22.132Z,4.22
2023-08-17T02:46:48.797Z,4.50
2023-08-17T02:49:15.473Z,3.70
2023-08-17T02:51:42.132Z,3.72
2023-08-17T02:54:08.798Z,4.55
2023-08-17T02:56:35.492Z,3.97
2023-08-17T02:59:02.145Z,4.18
2023-08-17T03:01:30.198Z,4.63
2023-08-17T03:03:56.958Z,4.55
2023-08-17T03:06:23.685Z,4.18
2023-08-17T03:08:50.347Z,3.78
2023-08-17T03:11:17.025Z,3.63
2023-08-17T03:13:43.691Z,3.75
2023-08-17T03:16:10.381Z,3.85
2023-08-17T03:18:37.050Z,3.50
2023-08-17T03:21:03.752Z,3.67
2023-08-17T03:23:30.471Z,3.40
2023-08-17T03:25:57.153Z,4.00
2023-08-17T03:28:23.876Z,3.75
2023-08-17T03:30:50.798Z,3.80
2023-08-17T03:33:17.539Z,4.65
2023-08-17T03:35:44.188Z,3.88
2023-08-17T03:38:10.849Z,4.13
2023-08-17T03:40:37.531Z,3.75
2023-08-17T03:43:04.364Z,4.43
2023-08-17T03:45:31.870Z,4.30
2023-08-17T03:47:58.536Z,4.03
2023-08-17T03:50:27.726Z,5.00
2023-08-17T03:52:54.434Z,4.63
2023-08-17T03:55:21.098Z,4.75
2023-08-17T03:57:47.775Z,4.00
2023-08-17T04:00:14.900Z,4.40
2023-08-17T04:02:41.746Z,5.30
2023-08-17T04:05:08.804Z,4.60
2023-08-17T04:07:35.526Z,4.50
2023-08-17T04:10:02.192Z,4.20
2023-08-17T04:12:28.857Z,4.00
2023-08-17T04:14:55.538Z,4.55
2023-08-17T04:17:22.682Z,5.20
2023-08-17T04:19:49.447Z,4.20
2023-08-17T04:22:16.110Z,4.68
2023-08-17T04:24:42.804Z,4.45
2023-08-17T04:27:09.478Z,3.90
2023-08-17T04:29:38.658Z,3.58
2023-08-17T04:32:05.608Z,3.47
2023-08-17T04:34:32.369Z,3.47
2023-08-17T04:36:59.018Z,4.38
2023-08-17T04:39:25.744Z,4.63
2023-08-17T04:41:52.392Z,5.38
2023-08-17T04:44:19.046Z,4.72
2023-08-17T04:46:45.695Z,6.28
2023-08-17T04:49:12.464Z,5.78
2023-08-17T04:51:39.427Z,8.88
2023-08-17T04:54:06.143Z,8.57
2023-08-17T04:56:32.837Z,8.93
2023-08-17T04:58:59.479Z,10.68
2023-08-17T05:01:26.182Z,11.32
2023-08-17T05:03:52.986Z,8.05
2023-08-17T05:06:19.690Z,12.13
2023-08-17T05:08:46.344Z,7.20
2023-08-17T05:11:13.324Z,8.27
2023-08-17T05:13:39.998Z,9.05
2023-08-17T05:16:06.816Z,10.82
2023-08-17T05:18:33.573Z,6.75
2023-08-17T05:21:00.250Z,10.18
2023-08-17T05:23:27.000Z,8.20
2023-08-17T05:25:53.663Z,10.18
2023-08-17T05:28:20.308Z,8.60
2023-08-17T05:30:47.630Z,7.78
2023-08-17T05:33:14.328Z,9.43
2023-08-17T05:35:41.089Z,10.48
2023-08-17T05:38:07.750Z,10.52
2023-08-17T05:40:34.460Z,10.52
2023-08-17T05:43:01.234Z,10.25
2023-08-17T05:45:27.893Z,9.48
2023-08-17T05:47:54.605Z,10.52
2023-08-17T05:50:21.311Z,11.38
2023-08-17T05:52:47.995Z,12.65
2023-08-17T05:55:14.680Z,11.95
2023-08-17T05:57:41.378Z,11.77
2023-08-17T06:00:11.331Z,10.05
2023-08-17T06:02:38.059Z,10.05
2023-08-17T06:05:05.089Z,10.95
2023-08-17T06:07:31.832Z,13.88
2023-08-17T06:09:58.481Z,9.82
2023-08-17T06:12:25.147Z,10.30
2023-08-17T06:14:51.813Z,11.82
2023-08-17T06:17:18.484Z,14.35
2023-08-17T06:19:45.204Z,14.02
2023-08-17T06:22:11.874Z,15.98
2023-08-17T06:24:38.551Z,15.60
2023-08-17T06:27:05.267Z,18.17
2023-08-17T06:29:32.145Z,14.73
2023-08-17T06:31:58.824Z,17.98
2023-08-17T06:34:25.506Z,16.40
2023-08-17T06:37:03.504Z,16.92
2023-08-17T06:39:30.246Z,20.00
2023-08-17T06:41:56.918Z,19.92
2023-08-17T06:44:23.573Z,20.75
2023-08-17T06:46:50.252Z,21.63
2023-08-17T06:49:16.965Z,21.40
2023-08-17T06:51:43.634Z,20.65
2023-08-17T06:54:10.616Z,18.13
2023-08-17T06:56:37.586Z,21.42
2023-08-17T06:59:04.451Z,19.88
2023-08-17T07:01:31.226Z,23.02
2023-08-17T07:03:58.246Z,21.60
2023-08-17T07:06:25.753Z,20.10
2023-08-17T07:08:53.721Z,19.65
2023-08-17T07:11:20.509Z,17.73
2023-08-17T07:13:47.571Z,19.02
2023-08-17T07:16:14.496Z,19.88
2023-08-17T07:18:41.458Z,20.10
2023-08-17T07:21:08.175Z,20.45
2023-08-17T07:23:34.877Z,21.42
2023-08-17T07:26:01.679Z,20.73
2023-08-17T07:28:28.436Z,22.40
2023-08-17T07:30:55.150Z,20.48
2023-08-17T07:33:21.824Z,22.08
2023-08-17T07:35:48.528Z,18.20
2023-08-17T07:38:15.228Z,18.48
2023-08-17T07:40:43.847Z,17.33
2023-08-17T07:43:10.506Z,17.33
2023-08-17T07:45:37.238Z,12.60
2023-08-17T07:48:04.194Z,14.20
2023-08-17T07:50:30.871Z,18.27
2023-08-17T07:52:57.569Z,17.33
2023-08-17T07:55:24.351Z,15.82
2023-08-17T07:57:51.072Z,12.85
2023-08-17T08:00:18.112Z,16.40
2023-08-17T08:02:44.848Z,18.00
2023-08-17T08:05:11.669Z,15.68
2023-08-17T08:07:38.354Z,15.52
2023-08-17T08:10:06.448Z,14.52
2023-08-17T08:12:33.120Z,14.18
2023-08-17T08:14:59.780Z,13.57
2023-08-17T08:17:27.542Z,11.70
2023-08-17T08:19:55.284Z,12.30
2023-08-17T08:22:22.021Z,14.48
2023-08-17T08:24:48.686Z,12.70
2023-08-17T08:27:15.368Z,11.95
2023-08-17T08:29:42.119Z,12.48
2023-08-17T08:32:09.248Z,12.35
2023-08-17T08:34:35.904Z,13.50
2023-08-17T08:37:02.699Z,13.30
2023-08-17T08:39:29.410Z,13.40
2023-08-17T08:41:56.280Z,13.70
2023-08-17T08:44:23.180Z,12.80
2023-08-17T08:46:49.998Z,12.10
2023-08-17T08:49:22.329Z,11.85
2023-08-17T08:51:50.186Z,10.75
2023-08-17T08:54:23.207Z,11.27
2023-08-17T08:56:53.063Z,10.32
2023-08-17T08:59:20.421Z,8.70
2023-08-17T09:01:48.256Z,9.80
2023-08-17T09:04:15.923Z,10.23
2023-08-17T09:06:42.574Z,9.60
2023-08-17T09:09:09.249Z,7.95
2023-08-17T09:11:35.906Z,7.30
2023-08-17T09:14:02.639Z,7.85
2023-08-17T09:16:29.388Z,7.65
2023-08-17T09:18:56.054Z,6.60
2023-08-17T09:21:25.646Z,6.35
2023-08-17T09:23:58.993Z,5.88
2023-08-17T09:28:55.193Z,6.50
2023-08-17T09:31:22.582Z,5.90
2023-08-17T09:33:52.529Z,5.80
2023-08-17T09:36:23.600Z,5.25
2023-08-17T09:38:51.056Z,5.90
2023-08-17T09:41:18.821Z,5.80
2023-08-17T09:43:46.402Z,5.03
2023-08-17T09:46:13.214Z,4.25
2023-08-17T09:48:39.933Z,5.72
2023-08-17T09:51:07.360Z,5.55
2023-08-17T09:53:40.345Z,5.72
2023-08-17T09:56:17.783Z,5.53
2023-08-17T09:58:44.857Z,4.70
2023-08-17T10:01:11.588Z,4.97
2023-08-17T10:03:39.078Z,4.55
2023-08-17T10:06:07.997Z,4.47
2023-08-17T10:11:07.032Z,3.72
2023-08-17T10:13:38.831Z,4.60
2023-08-17T10:16:15.093Z,3.53
2023-08-17T10:19:10.732Z,4.25
2023-08-17T10:22:00.123Z,4.65
2023-08-17T10:24:26.778Z,5.03
2023-08-17T10:26:54.935Z,3.65
2023-08-17T10:29:23.706Z,3.47
2023-08-17T10:31:50.417Z,4.13
2023-08-17T10:34:17.116Z,3.80
2023-08-17T10:36:43.912Z,3.25
2023-08-17T10:39:21.101Z,2.70
2023-08-17T10:41:49.096Z,2.75
2023-08-17T10:44:15.909Z,3.80
2023-08-17T10:46:44.716Z,3.20
2023-08-17T10:49:29.606Z,3.72
2023-08-17T10:52:06.280Z,3.60
2023-08-17T10:54:39.990Z,3.58
2023-08-17T10:57:33.132Z,3.88
2023-08-17T11:00:28.890Z,2.90
2023-08-17T11:02:56.934Z,3.17
2023-08-17T11:05:37.456Z,3.20
2023-08-17T11:08:04.643Z,3.50
2023-08-17T11:10:31.644Z,3.10
2023-08-17T11:13:00.665Z,3.25
2023-08-17T11:15:27.849Z,3.47
2023-08-17T11:17:54.601Z,2.92
2023-08-17T11:20:23.898Z,3.70
2023-08-17T11:22:51.030Z,2.97
2023-08-17T11:25:18.308Z,2.97
2023-08-17T11:27:44.976Z,3.20
2023-08-17T11:30:12.179Z,2.78
2023-08-17T11:32:38.859Z,3.00
2023-08-17T11:35:05.891Z,2.80
2023-08-17T11:37:32.793Z,3.25
2023-08-17T11:39:59.694Z,2.67
2023-08-17T11:42:26.770Z,2.90
2023-08-17T11:44:53.717Z,3.00
2023-08-17T11:47:20.449Z,3.50
2023-08-17T11:49:50.447Z,3.28
2023-08-17T11:52:17.121Z,3.50
2023-08-17T11:54:43.774Z,3.67
2023-08-17T11:57:10.453Z,3.35
2023-08-17T11:59:37.226Z,3.30
2023-08-17T12:02:04.061Z,3.10
2023-08-17T12:04:33.821Z,3.03
2023-08-17T12:07:00.471Z,2.83
2023-08-17T12:09:27.149Z,3.28
2023-08-17T12:12:01.179Z,2.80
2023-08-17T12:16:55.075Z,2.70
2023-08-17T12:19:22.053Z,2.65
2023-08-17T12:21:51.799Z,3.20
2023-08-17T12:24:20.737Z,2.40
2023-08-17T12:26:47.943Z,2.50
2023-08-17T12:29:14.789Z,2.47
2023-08-17T12:31:41.525Z,2.42
2023-08-17T12:34:08.379Z,2.40
2023-08-17T12:36:36.497Z,2.38
2023-08-17T12:39:05.588Z,2.30
2023-08-17T12:41:32.810Z,2.30
2023-08-17T12:44:00.222Z,2.40
2023-08-17T12:46:32.454Z,2.05
2023-08-17T12:49:00.358Z,2.40
2023-08-17T12:51:27.146Z,2.10
2023-08-17T12:53:53.797Z,2.08
2023-08-17T12:56:20.586Z,2.28
2023-08-17T12:58:47.573Z,2.28
2023-08-17T13:01:15.164Z,2.38
2023-08-17T13:03:42.064Z,1.90
2023-08-17T13:06:08.802Z,2.00
2023-08-17T13:08:35.464Z,2.10
2023-08-17T13:11:02.166Z,2.20
2023-08-17T13:13:28.912Z,1.88
2023-08-17T13:15:55.584Z,2.10
2023-08-17T13:18:22.294Z,2.35
2023-08-17T13:20:48.964Z,2.30
2023-08-17T13:23:15.628Z,1.88
2023-08-17T13:25:42.344Z,1.90
2023-08-17T13:28:09.033Z,2.10
2023-08-17T13:30:35.686Z,1.92
2023-08-17T13:33:02.624Z,2.10
2023-08-17T13:35:29.339Z,1.70
2023-08-17T13:37:56.071Z,2.00
2023-08-17T13:40:22.778Z,2.05
2023-08-17T13:42:49.451Z,1.67
2023-08-17T13:45:16.282Z,2.15
2023-08-17T13:47:43.095Z,1.90
2023-08-17T13:50:10.195Z,1.77
2023-08-17T13:52:36.918Z,2.00
2023-08-17T13:55:04.188Z,1.80
2023-08-17T13:57:30.871Z,1.58
2023-08-17T13:59:57.553Z,1.70
2023-08-17T14:02:24.294Z,1.90
2023-08-17T14:04:50.966Z,1.85
2023-08-17T14:07:17.627Z,1.80
2023-08-17T14:09:51.543Z,1.70
2023-08-17T14:12:25.003Z,1.70
2023-08-17T14:14:51.885Z,2.22
2023-08-17T14:17:18.568Z,2.10
2023-08-17T14:19:45.292Z,1.85
2023-08-17T14:22:11.955Z,2.13
2023-08-17T14:24:38.713Z,2.20
2023-08-17T14:27:05.503Z,1.80
2023-08-17T14:29:32.163Z,1.70
2023-08-17T14:31:58.843Z,1.80
2023-08-17T14:34:25.556Z,2.00
2023-08-17T14:36:52.213Z,1.40
2023-08-17T14:39:18.924Z,1.58
2023-08-17T14:41:47.042Z,1.45
2023-08-17T14:44:13.849Z,1.70
2023-08-17T14:46:40.625Z,1.48
2023-08-17T14:49:07.273Z,1.80
2023-08-17T14:51:39.171Z,1.77
2023-08-17T14:54:06.988Z,1.55
2023-08-17T14:56:33.658Z,1.65
2023-08-17T14:59:00.456Z,1.80
2023-08-17T15:01:27.144Z,1.50
2023-08-17T15:03:54.062Z,1.77
2023-08-17T15:06:33.509Z,1.65
2023-08-17T15:09:01.220Z,1.55
2023-08-17T15:11:27.966Z,1.65
2023-08-17T15:13:54.684Z,1.60
2023-08-17T15:16:26.439Z,1.67
2023-08-17T15:18:53.411Z,2.05
2023-08-17T15:21:20.321Z,1.70
2023-08-17T15:23:46.993Z,1.50
2023-08-17T15:26:13.875Z,1.77
2023-08-17T15:28:41.533Z,1.52
2023-08-17T15:31:13.367Z,1.83
2023-08-17T15:33:40.933Z,1.52
2023-08-17T15:36:07.641Z,1.65
2023-08-17T15:38:34.384Z,1.65
2023-08-17T15:41:01.059Z,1.98
2023-08-17T15:43:27.765Z,1.50
2023-08-17T15:45:54.457Z,2.33
2023-08-17T15:48:21.138Z,1.45
2023-08-17T15:50:47.828Z,1.90
2023-08-17T15:53:14.486Z,2.00
2023-08-17T15:55:41.138Z,1.80
2023-08-17T15:58:10.484Z,1.50
2023-08-17T16:00:37.464Z,2.65
2023-08-17T16:03:04.637Z,1.80
2023-08-17T16:05:31.623Z,1.77
2023-08-17T16:07:58.750Z,1.48
2023-08-17T16:10:25.417Z,1.33
2023-08-17T16:12:52.074Z,1.67
2023-08-17T16:15:18.782Z,2.25
2023-08-17T16:17:45.482Z,1.80
2023-08-17T16:20:12.659Z,1.50
2023-08-17T16:22:39.335Z,1.50
2023-08-17T16:25:07.326Z,1.48
2023-08-17T16:27:38.919Z,1.50
2023-08-17T16:30:06.757Z,1.70
2023-08-17T16:32:33.512Z,1.42
2023-08-17T16:35:00.224Z,2.05
2023-08-17T16:37:27.236Z,1.75
2023-08-17T16:39:54.068Z,1.95
2023-08-17T16:42:20.764Z,2.22
2023-08-17T16:44:47.520Z,1.90
2023-08-17T16:47:19.823Z,2.20
2023-08-17T16:49:46.848Z,2.17
2023-08-17T16:52:13.494Z,2.55
2023-08-17T16:54:40.170Z,2.08
2023-08-17T16:57:06.881Z,2.10
2023-08-17T16:59:33.613Z,2.13
2023-08-17T17:02:00.649Z,2.10
2023-08-17T17:04:27.389Z,2.50
2023-08-17T17:06:54.133Z,2.63
2023-08-17T17:09:21.160Z,2.80
2023-08-17T17:11:47.888Z,2.88
2023-08-17T17:14:14.753Z,2.60
2023-08-17T17:16:41.689Z,3.20
2023-08-17T17:19:08.359Z,3.50
2023-08-17T17:21:35.026Z,3.72
2023-08-17T17:24:01.725Z,3.05
2023-08-17T17:26:28.413Z,3.30
2023-08-17T17:28:55.069Z,3.00
2023-08-17T17:31:21.747Z,3.00
2023-08-17T17:33:48.531Z,3.15
2023-08-17T17:36:15.571Z,3.33
2023-08-17T17:38:42.444Z,3.75
2023-08-17T17:41:09.184Z,3.50
2023-08-17T17:43:35.864Z,3.72
2023-08-17T17:46:02.598Z,3.70
2023-08-17T17:48:29.302Z,3.35
2023-08-17T17:50:56.005Z,4.30
2023-08-17T17:53:22.696Z,4.32
2023-08-17T17:55:49.388Z,4.70
2023-08-17T17:58:16.125Z,5.22
2023-08-17T18:00:42.970Z,4.93
2023-08-17T18:03:14.650Z,5.18
2023-08-17T18:05:42.298Z,5.32
2023-08-17T18:08:09.066Z,5.93
2023-08-17T18:10:37.770Z,5.78
2023-08-17T18:13:05.399Z,5.90
2023-08-17T18:15:32.942Z,5.60
2023-08-17T18:17:59.779Z,5.53
2023-08-17T18:20:26.475Z,5.95
2023-08-17T18:22:53.262Z,5.85
2023-08-17T18:25:19.973Z,6.05
2023-08-17T18:27:46.667Z,5.95
2023-08-17T18:30:13.489Z,6.50
2023-08-17T18:32:40.685Z,6.32
2023-08-17T18:35:07.837Z,5.75
2023-08-17T18:37:34.550Z,6.30
2023-08-17T18:40:01.287Z,5.68
2023-08-17T18:42:28.023Z,6.05
2023-08-17T18:44:55.469Z,5.88
2023-08-17T18:47:22.741Z,5.82
2023-08-17T18:49:50.330Z,6.18
2023-08-17T18:52:17.151Z,6.22
2023-08-17T18:55:03.211Z,6.38
2023-08-17T18:57:31.995Z,5.95
2023-08-17T19:00:00.577Z,7.05
2023-08-17T19:02:27.391Z,7.30
2023-08-17T19:04:54.123Z,7.15
2023-08-17T19:07:20.845Z,6.70
2023-08-17T19:09:48.186Z,8.18
2023-08-17T19:12:16.998Z,7.35
2023-08-17T19:14:44.050Z,7.30
2023-08-17T19:17:10.811Z,7.72
2023-08-17T19:19:37.536Z,7.85
2023-08-17T19:22:04.227Z,8.65
2023-08-17T19:24:30.942Z,7.32
2023-08-17T19:26:57.629Z,7.88
2023-08-17T19:29:24.758Z,7.28
2023-08-17T19:31:52.346Z,8.27
2023-08-17T19:34:22.174Z,8.05
2023-08-17T19:36:48.853Z,8.75
2023-08-17T19:39:15.533Z,7.72
2023-08-17T19:41:44.472Z,8.00
2023-08-17T19:44:11.284Z,9.57
2023-08-17T19:46:38.161Z,9.38
2023-08-17T19:49:05.224Z,9.43
2023-08-17T19:51:32.036Z,10.00
2023-08-17T19:53:58.741Z,10.30
2023-08-17T19:56:25.512Z,9.45
2023-08-17T19:58:52.194Z,9.75
2023-08-17T20:01:19.554Z,10.02
2023-08-17T20:03:51.216Z,10.73
2023-08-17T20:06:18.090Z,10.63
2023-08-17T20:08:44.838Z,10.13
2023-08-17T20:11:12.563Z,10.98
2023-08-17T20:13:39.409Z,10.68
2023-08-17T20:16:06.124Z,11.65
2023-08-17T20:18:33.099Z,12.77
2023-08-17T20:21:00.171Z,12.85
2023-08-17T20:23:26.854Z,14.00
2023-08-17T20:25:56.269Z,15.25
2023-08-17T20:28:24.275Z,15.05
2023-08-17T20:31:00.438Z,15.48
2023-08-17T20:33:27.199Z,15.38
2023-08-17T20:35:54.682Z,15.50
2023-08-17T20:38:21.741Z,14.63
2023-08-17T20:40:48.494Z,16.77
2023-08-17T20:43:15.296Z,17.05
2023-08-17T20:45:45.086Z,16.70
2023-08-17T20:48:12.152Z,18.35
2023-08-17T20:50:39.653Z,18.70
2023-08-17T20:53:06.772Z,18.77
2023-08-17T20:55:40.239Z,19.52
2023-08-17T20:58:06.926Z,19.65
2023-08-17T21:00:33.798Z,19.85
2023-08-17T21:03:00.523Z,19.73
2023-08-17T21:05:28.286Z,20.33
2023-08-17T21:07:56.055Z,20.85
2023-08-17T21:10:23.702Z,22.48
2023-08-17T21:12:50.461Z,20.40
2023-08-17T21:15:17.290Z,19.35
2023-08-17T21:17:43.992Z,19.58
2023-08-17T21:20:10.983Z,20.85
2023-08-17T21:22:39.297Z,20.73
2023-08-17T21:25:06.759Z,20.25
2023-08-17T21:27:33.539Z,20.23
2023-08-17T21:30:00.275Z,19.85
2023-08-17T21:32:26.958Z,20.52
2023-08-17T21:34:53.655Z,22.05
2023-08-17T21:37:27.430Z,21.67
2023-08-17T21:39:54.325Z,22.30
2023-08-17T21:42:21.967Z,24.10
2023-08-17T21:44:48.799Z,23.33
2023-08-17T21:47:15.508Z,22.25
2023-08-17T21:49:44.964Z,23.08
2023-08-17T21:52:11.623Z,22.95
2023-08-17T21:54:38.314Z,21.67
2023-08-17T21:57:05.028Z,23.42
2023-08-17T21:59:31.671Z,22.80
2023-08-17T22:01:58.406Z,22.25
2023-08-17T22:04:25.143Z,23.40
2023-08-17T22:06:52.460Z,24.80
2023-08-17T22:09:19.169Z,22.40
2023-08-17T22:11:45.864Z,23.17
2023-08-17T22:14:12.569Z,24.85
2023-08-17T22:16:39.316Z,23.48
2023-08-17T22:19:06.070Z,22.35
2023-08-17T22:21:32.721Z,22.40
2023-08-17T22:23:59.430Z,25.38
2023-08-17T22:26:26.251Z,24.40
2023-08-17T22:28:52.920Z,25.13
2023-08-17T22:31:19.630Z,24.25
2023-08-17T22:33:46.327Z,27.17
2023-08-17T22:36:13.000Z,25.15
2023-08-17T22:38:40.881Z,24.83
2023-08-17T22:41:07.528Z,25.23
2023-08-17T22:43:34.357Z,26.00
2023-08-17T22:46:03.579Z,27.10
2023-08-17T22:48:30.503Z,25.02
2023-08-17T22:50:57.206Z,25.30
2023-08-17T22:53:23.974Z,25.65
2023-08-17T22:55:50.922Z,27.55
2023-08-17T22:58:17.643Z,24.88
2023-08-17T23:00:44.337Z,27.42
2023-08-17T23:03:11.052Z,28.75
2023-08-17T23:05:37.765Z,26.83
2023-08-17T23:08:05.393Z,26.05
2023-08-17T23:10:32.132Z,27.17
2023-08-17T23:12:58.799Z,28.23
2023-08-17T23:15:25.474Z,25.73
2023-08-17T23:17:52.135Z,25.58
2023-08-17T23:20:18.904Z,26.25
2023-08-17T23:22:45.564Z,26.48
2023-08-17T23:25:12.239Z,25.65
2023-08-17T23:27:39.933Z,25.90
2023-08-17T23:30:07.290Z,27.05
2023-08-17T23:32:34.006Z,25.73
2023-08-17T23:35:00.889Z,24.80
2023-08-17T23:37:27.898Z,25.65
2023-08-17T23:39:54.890Z,25.27
2023-08-17T23:42:21.556Z,25.52
2023-08-17T23:44:48.214Z,26.35
2023-08-17T23:47:14.880Z,25.92
2023-08-17T23:49:41.584Z,26.95
2023-08-17T23:52:08.278Z,26.95
2023-08-17T23:54:34.984Z,24.92
2023-08-17T23:57:02.546Z,25.80
2023-08-17T23:59:29.188Z,26.13
